Time;durP1;ratioP1;P1;durP2;ratioP2;P2;SDS_P1;SDS_P2;PMS_P1;PMS_P2;Temp;Humidity;BMP_temperature;BMP_pressure;BME280_temperature;BME280_humidity;BME280_pressure;Samples;Min_cycle;Max_cycle;Signal;HPM_P1;HPM_P2
2022/08/06 00:02:57;;;;;;;9.10;4.43;;;;;;;23.32;56.34;100173.63;18431516;32;20093;-55
2022/08/06 00:13:03;;;;;;;7.50;4.30;;;;;;;23.22;56.77;100167.97;18429867;32;20101;-55
2022/08/06 00:23:07;;;;;;;11.93;4.75;;;;;;;23.04;57.19;100185.03;18429338;32;20701;-55
2022/08/06 00:33:20;;;;;;;8.65;4.45;;;;;;;22.75;58.51;100190.22;18428545;32;20354;-55
2022/08/06 00:43:25;;;;;;;9.43;4.70;;;;;;;22.86;58.17;100186.03;18429113;32;20167;-55
2022/08/06 00:53:36;;;;;;;10.32;4.90;;;;;;;22.80;58.47;100191.69;18427904;32;20165;-55
2022/08/06 01:03:39;;;;;;;8.73;4.47;;;;;;;22.71;58.95;100184.22;18427922;32;20469;-55
2022/08/06 01:13:45;;;;;;;9.68;4.95;;;;;;;22.65;59.51;100180.09;18436888;32;20149;-55
2022/08/06 01:24:33;;;;;;;10.35;4.90;;;;;;;22.53;59.80;100181.66;18434095;32;20081;-55
2022/08/06 01:34:40;;;;;;;8.70;4.87;;;;;;;22.44;59.86;100171.50;18422622;32;20182;-54
2022/08/06 01:44:45;;;;;;;9.20;5.00;;;;;;;22.29;60.40;100168.75;18436176;32;20133;-54
2022/08/06 01:54:53;;;;;;;9.73;4.68;;;;;;;22.23;60.50;100173.53;18435045;32;20349;-55
2022/08/06 02:04:59;;;;;;;9.13;4.62;;;;;;;22.13;60.63;100174.03;18434638;32;20104;-55
2022/08/06 02:15:17;;;;;;;10.60;5.28;;;;;;;21.99;60.73;100163.31;18433668;32;20089;-55
2022/08/06 02:25:24;;;;;;;8.77;4.37;;;;;;;21.82;61.27;100170.38;18435171;32;20090;-55
2022/08/06 02:35:39;;;;;;;9.68;4.47;;;;;;;21.85;61.34;100172.03;18433765;32;20361;-55
2022/08/06 02:45:46;;;;;;;8.70;4.60;;;;;;;21.59;62.32;100174.22;18433978;32;20417;-55
2022/08/06 02:56:06;;;;;;;8.02;4.22;;;;;;;21.60;61.66;100181.22;18433149;32;20093;-55
2022/08/06 03:06:10;;;;;;;8.38;4.37;;;;;;;21.51;61.81;100173.75;18432916;32;20139;-55
2022/08/06 03:16:17;;;;;;;8.52;4.65;;;;;;;21.45;61.97;100175.78;18432414;32;20105;-54
2022/08/06 03:26:27;;;;;;;9.23;4.57;;;;;;;21.33;62.66;100181.72;18431755;32;20110;-54
2022/08/06 03:36:31;;;;;;;8.27;4.40;;;;;;;21.16;63.29;100193.19;18431693;32;20156;-54
2022/08/06 03:46:41;;;;;;;9.40;4.70;;;;;;;21.21;62.89;100189.37;18431423;32;20138;-55
2022/08/06 03:56:46;;;;;;;9.43;4.85;;;;;;;21.32;62.73;100187.97;18430973;32;20115;-54
2022/08/06 04:06:53;;;;;;;8.60;4.60;;;;;;;21.29;63.34;100181.00;18430571;32;20104;-55
2022/08/06 04:16:58;;;;;;;9.15;4.40;;;;;;;21.68;62.53;100188.84;18429544;32;20108;-55
2022/08/06 04:27:05;;;;;;;9.45;4.20;;;;;;;22.72;59.46;100208.09;18429964;32;20093;-55
2022/08/06 04:37:13;;;;;;;8.32;4.80;;;;;;;23.35;57.99;100209.87;18428724;32;20135;-54
2022/08/06 04:47:18;;;;;;;8.27;4.40;;;;;;;23.64;57.55;100208.16;18436480;32;20124;-54
2022/08/06 04:57:24;;;;;;;8.63;4.70;;;;;;;23.80;57.97;100217.88;18436555;32;20630;-55
2022/08/06 05:07:43;;;;;;;;;;;;;;;23.94;58.47;100222.34;18436548;32;20073;-55
2022/08/06 05:18:06;;;;;;;6.47;3.67;;;;;;;24.56;58.04;100215.88;18436175;32;19972;-55
2022/08/06 05:28:09;;;;;;;8.88;3.75;;;;;;;24.78;57.12;100218.06;18435566;32;20093;-55
2022/08/06 05:38:16;;;;;;;8.75;3.75;;;;;;;25.13;55.06;100226.50;18435643;32;20088;-54
2022/08/06 05:48:39;;;;;;;6.47;3.75;;;;;;;25.76;52.30;100221.41;18435259;32;20093;-55
2022/08/06 05:58:52;;;;;;;6.60;3.42;;;;;;;26.32;51.40;100228.25;18434858;32;20092;-55
2022/08/06 06:08:57;;;;;;;8.00;3.33;;;;;;;26.69;48.84;100233.63;18434501;32;20437;-55
2022/08/06 06:19:14;;;;;;;6.55;3.22;;;;;;;27.55;46.67;100236.25;18434100;32;20097;-55
2022/08/06 06:29:32;;;;;;;6.12;3.35;;;;;;;28.30;44.61;100245.75;18433675;32;20119;-55
2022/08/06 06:40:04;;;;;;;5.12;2.72;;;;;;;28.83;45.02;100252.31;18433526;32;20112;-55
2022/08/06 06:50:34;;;;;;;6.20;2.80;;;;;;;29.34;43.33;100256.16;18433371;32;20137;-55
2022/08/06 07:00:40;;;;;;;7.43;3.17;;;;;;;30.29;40.38;100246.31;18432300;32;20142;-55
2022/08/06 07:10:50;;;;;;;5.60;2.65;;;;;;;29.85;39.24;100259.94;18432834;32;20120;-55
2022/08/06 07:20:55;;;;;;;6.60;2.60;;;;;;;31.47;36.42;100247.50;18433391;32;20440;-55
2022/08/06 07:31:00;;;;;;;4.62;2.40;;;;;;;32.14;36.10;100252.88;18431806;32;20101;-56
2022/08/06 07:41:13;;;;;;;4.60;2.58;;;;;;;32.15;31.76;100251.88;18431741;32;20425;-55
2022/08/06 07:51:35;;;;;;;4.97;2.72;;;;;;;32.11;31.95;100255.91;18431258;32;20101;-55
2022/08/06 08:01:40;;;;;;;6.18;2.80;;;;;;;33.47;30.91;100255.22;18430922;32;20421;-56
2022/08/06 08:11:52;;;;;;;5.22;2.80;;;;;;;34.43;26.89;100247.19;18430406;32;20089;-55
2022/08/06 08:22:18;;;;;;;5.47;2.50;;;;;;;34.16;27.13;100240.97;18437381;32;20468;-56
2022/08/06 08:32:26;;;;;;;4.15;2.12;;;;;;;34.93;24.46;100258.16;18437172;32;20112;-55
2022/08/06 08:42:35;;;;;;;3.70;2.12;;;;;;;35.23;24.12;100245.00;18436980;32;20433;-55
2022/08/06 08:52:41;;;;;;;5.90;2.58;;;;;;;34.43;24.30;100251.72;18436808;32;20121;-55
2022/08/06 09:02:46;;;;;;;3.78;2.10;;;;;;;35.25;24.38;100264.66;18436269;32;20531;-56
2022/08/06 09:12:51;;;;;;;4.85;2.47;;;;;;;35.66;23.57;100266.53;18436107;32;20115;-55
2022/08/06 09:23:00;;;;;;;4.10;2.50;;;;;;;35.97;23.63;100257.63;18435881;32;20430;-56
2022/08/06 09:33:13;;;;;;;3.90;2.25;;;;;;;36.05;23.96;100256.78;18433630;32;20147;-55
2022/08/06 09:43:38;;;;;;;4.90;2.37;;;;;;;36.71;23.64;100255.69;18435135;32;20158;-55
2022/08/06 09:54:03;;;;;;;4.45;2.35;;;;;;;36.21;24.79;100249.63;18434752;32;20100;-56
2022/08/06 10:04:29;;;;;;;5.07;2.70;;;;;;;37.05;23.78;100242.72;18435458;32;20102;-56
2022/08/06 10:14:38;;;;;;;4.10;2.60;;;;;;;37.70;22.66;100245.94;18432887;32;20115;-55
2022/08/06 10:24:45;;;;;;;5.20;3.00;;;;;;;38.51;22.12;100233.44;18433829;32;20370;-55
2022/08/06 10:34:52;;;;;;;5.53;3.10;;;;;;;38.72;21.86;100226.31;18433669;32;20105;-55
2022/08/06 10:44:59;;;;;;;4.22;2.58;;;;;;;39.13;21.35;100222.12;18432769;32;20092;-55
2022/08/06 10:55:15;;;;;;;4.57;2.60;;;;;;;39.28;20.75;100219.31;18434427;32;20097;-54
2022/08/06 11:05:23;;;;;;;8.40;3.30;;;;;;;39.67;20.14;100223.37;18433000;32;20128;-55
2022/08/06 11:15:27;;;;;;;7.20;3.20;;;;;;;39.34;21.34;100218.47;18433058;32;20107;-54
2022/08/06 11:25:42;;;;;;;6.95;2.85;;;;;;;40.07;20.06;100200.91;18425914;32;194874;-55
2022/08/06 11:35:48;;;;;;;5.30;3.00;;;;;;;39.84;21.00;100198.47;18430618;32;20101;-55
2022/08/06 11:46:22;;;;;;;4.18;2.65;;;;;;;39.87;20.66;100178.12;18431617;32;20171;-55
2022/08/06 11:56:42;;;;;;;4.78;3.00;;;;;;;39.77;20.01;100176.56;18432124;32;20111;-55
2022/08/06 12:06:47;;;;;;;4.95;2.83;;;;;;;39.07;21.30;100174.59;18292891;32;20418;-55
2022/08/06 12:16:51;;;;;;;6.35;3.47;;;;;;;38.60;21.40;100167.84;18292249;32;20175;-55
2022/08/06 12:26:58;;;;;;;6.32;3.92;;;;;;;38.54;23.03;100159.44;18351997;32;20115;-54
2022/08/06 12:37:02;;;;;;;7.47;4.28;;;;;;;38.59;23.90;100167.03;18428804;32;20081;-54
2022/08/06 12:47:13;;;;;;;8.63;4.70;;;;;;;37.84;26.03;100165.25;18429189;32;20362;-54
2022/08/06 12:57:22;;;;;;;9.13;4.62;;;;;;;38.99;24.95;100172.87;18427663;32;20088;-54
2022/08/06 13:07:48;;;;;;;9.85;4.05;;;;;;;39.46;24.90;100171.56;18435414;32;20502;-54
2022/08/06 13:18:08;;;;;;;7.75;4.25;;;;;;;39.68;24.50;100164.97;18436221;32;20376;-54
2022/08/06 13:28:33;;;;;;;5.20;3.30;;;;;;;39.25;24.57;100197.84;18436568;32;20179;-55
2022/08/06 13:38:40;;;;;;;6.70;3.22;;;;;;;37.50;26.01;100203.91;18435658;32;20353;-54
2022/08/06 13:48:47;;;;;;;7.82;3.30;;;;;;;37.22;25.31;100212.69;18435234;32;20719;-55
2022/08/06 13:58:51;;;;;;;6.43;3.40;;;;;;;37.33;26.16;100213.09;18434966;32;20179;-55
2022/08/06 14:08:59;;;;;;;7.85;3.92;;;;;;;37.98;24.48;100201.69;18434505;32;20145;-55
2022/08/06 14:19:03;;;;;;;6.82;4.00;;;;;;;37.31;27.10;100204.25;18431770;32;20180;-54
2022/08/06 14:29:27;;;;;;;8.93;4.05;;;;;;;36.76;27.90;100200.75;18434930;32;20097;-54
2022/08/06 14:39:51;;;;;;;8.13;4.00;;;;;;;36.50;28.25;100210.06;18434775;32;20172;-54
2022/08/06 14:50:04;;;;;;;6.95;3.60;;;;;;;36.21;29.04;100217.00;18433601;32;20385;-54
2022/08/06 15:00:10;;;;;;;5.65;3.55;;;;;;;36.01;29.63;100235.59;18433292;32;20494;-55
2022/08/06 15:10:24;;;;;;;7.87;3.75;;;;;;;35.69;30.01;100252.62;18433962;32;20093;-54
2022/08/06 15:20:31;;;;;;;;;;;;;;;34.92;31.42;100280.00;18432908;32;20129;-54
2022/08/06 15:30:36;;;;;;;13.15;6.18;;;;;;;34.73;32.21;100304.56;18431336;32;19972;-54
2022/08/06 15:40:41;;;;;;;11.60;5.53;;;;;;;34.58;32.84;100319.72;18433078;32;20108;-54
2022/08/06 15:50:46;;;;;;;10.60;5.87;;;;;;;33.86;33.98;100335.19;18431232;32;20162;-55
2022/08/06 16:01:09;;;;;;;10.65;6.28;;;;;;;34.08;33.38;100322.16;18432003;32;20146;-54
2022/08/06 16:11:18;;;;;;;9.13;4.45;;;;;;;33.77;34.52;100333.44;18430318;32;20508;-55
2022/08/06 16:21:25;;;;;;;6.03;2.92;;;;;;;33.94;33.71;100341.66;18429569;32;20140;-55
2022/08/06 16:31:30;;;;;;;8.80;4.07;;;;;;;33.95;33.83;100349.63;18429306;32;20440;-54
2022/08/06 16:41:49;;;;;;;8.02;3.75;;;;;;;33.82;33.97;100350.03;18434299;32;20116;-54
2022/08/06 16:52:01;;;;;;;7.22;3.90;;;;;;;33.41;34.28;100353.19;18437012;32;20456;-55
2022/08/06 17:02:37;;;;;;;9.38;3.95;;;;;;;33.07;34.86;100357.44;18436694;32;20101;-54
2022/08/06 17:12:46;;;;;;;;;;;;;;;32.66;35.85;100359.63;18436811;32;20330;-54
2022/08/06 17:23:00;;;;;;;8.43;3.83;;;;;;;32.67;35.98;100369.41;18436230;32;19988;-55
2022/08/06 17:33:08;;;;;;;7.93;3.22;;;;;;;32.56;35.76;100375.03;18435738;32;20101;-55
2022/08/06 17:43:12;;;;;;;6.25;2.65;;;;;;;32.02;36.98;100398.00;18435415;32;20104;-55
2022/08/06 17:53:36;;;;;;;5.90;2.90;;;;;;;31.92;36.68;100402.53;18434938;32;20166;-55
2022/08/06 18:03:56;;;;;;;5.28;2.80;;;;;;;31.31;37.79;100413.44;18435731;32;20115;-55
2022/08/06 18:14:05;;;;;;;5.32;2.55;;;;;;;31.09;38.67;100415.31;18434459;32;20097;-55
2022/08/06 18:24:23;;;;;;;5.57;2.92;;;;;;;30.84;39.29;100428.28;18434938;32;20117;-55
2022/08/06 18:34:29;;;;;;;7.40;3.17;;;;;;;30.57;40.03;100437.75;18433931;32;20482;-55
2022/08/06 18:44:33;;;;;;;5.95;3.20;;;;;;;30.08;42.02;100450.03;18433732;32;20167;-55
2022/08/06 18:54:40;;;;;;;5.40;2.85;;;;;;;29.67;42.46;100465.94;18433341;32;20100;-55
2022/08/06 19:04:59;;;;;;;6.75;3.08;;;;;;;29.80;41.90;100481.91;18431868;32;20108;-55
2022/08/06 19:15:05;;;;;;;4.60;2.37;;;;;;;29.67;41.28;100488.28;18432790;32;20425;-55
2022/08/06 19:25:12;;;;;;;6.40;2.92;;;;;;;29.44;41.36;100485.66;18433218;32;20110;-55
2022/08/06 19:35:17;;;;;;;4.97;2.55;;;;;;;29.10;42.07;100488.31;18432079;32;20115;-55
2022/08/06 19:45:48;;;;;;;4.28;2.08;;;;;;;28.97;42.07;100504.56;18431636;32;20100;-55
2022/08/06 19:56:12;;;;;;;5.35;2.60;;;;;;;28.99;41.40;100504.44;18432274;32;20425;-55
2022/08/06 20:06:22;;;;;;;4.70;2.20;;;;;;;28.72;42.42;100508.28;18430754;32;20088;-55
2022/08/06 20:16:47;;;;;;;5.35;2.60;;;;;;;28.62;42.61;100521.59;18430226;32;20092;-55
2022/08/06 20:26:51;;;;;;;5.10;2.35;;;;;;;28.46;42.80;100525.44;18429450;32;20093;-55
2022/08/06 20:37:05;;;;;;;6.28;2.53;;;;;;;27.79;43.29;100530.34;18429202;32;20092;-54
2022/08/06 20:47:16;;;;;;;4.35;2.40;;;;;;;28.19;43.28;100544.50;18428553;32;20117;-54
2022/08/06 20:57:41;;;;;;;3.53;2.10;;;;;;;27.89;44.25;100553.81;18429173;32;20437;-54
2022/08/06 21:07:53;;;;;;;4.97;2.50;;;;;;;27.34;46.03;100562.13;18427549;32;20362;-55
2022/08/06 21:18:01;;;;;;;4.97;2.40;;;;;;;26.95;47.34;100572.84;18427676;32;20089;-55
2022/08/06 21:28:08;;;;;;;3.92;1.87;;;;;;;26.60;48.34;100571.56;18434284;32;20339;-54
2022/08/06 21:38:17;;;;;;;4.10;2.22;;;;;;;26.30;48.53;100572.66;18435583;32;20141;-54
2022/08/06 21:48:28;;;;;;;4.12;1.90;;;;;;;26.41;47.01;100570.13;18435113;32;20433;-55
2022/08/06 21:58:33;;;;;;;4.72;1.90;;;;;;;26.69;44.69;100570.94;18434918;32;20085;-57
2022/08/06 22:08:37;;;;;;;4.20;1.70;;;;;;;26.74;44.59;100582.19;18433181;32;20098;-57
2022/08/06 22:18:41;;;;;;;4.07;1.98;;;;;;;26.88;44.35;100596.50;18434596;32;20421;-54
2022/08/06 22:28:47;;;;;;;3.50;1.95;;;;;;;26.69;44.20;100596.84;18435023;32;20089;-54
2022/08/06 22:38:54;;;;;;;3.87;1.80;;;;;;;26.45;45.43;100594.88;18432867;32;20434;-55
2022/08/06 22:48:58;;;;;;;3.55;1.80;;;;;;;26.48;45.92;100607.22;18434772;32;20115;-54
2022/08/06 22:59:04;;;;;;;44.80;4.70;;;;;;;26.20;47.27;100615.22;18433394;32;20132;-54
2022/08/06 23:09:27;;;;;;;3.53;1.73;;;;;;;26.01;46.98;100612.84;18433979;32;20427;-55
2022/08/06 23:19:33;;;;;;;2.92;1.42;;;;;;;25.96;46.91;100606.91;18432651;32;20709;-54
2022/08/06 23:29:56;;;;;;;2.47;1.40;;;;;;;25.66;47.76;100615.94;18433277;32;20135;-54
2022/08/06 23:40:15;;;;;;;2.87;1.70;;;;;;;25.35;49.23;100615.97;18432136;32;20111;-54
2022/08/06 23:50:22;;;;;;;2.90;1.60;;;;;;;25.67;47.73;100614.97;18431401;32;20093;-54
